createdAt,value
2023-05-24T00:01:32.967Z,3.03
2023-05-24T00:04:01.464Z,3.55
2023-05-24T00:06:30.069Z,3.05
2023-05-24T00:08:59.486Z,2.70
2023-05-24T00:11:28.428Z,3.03
2023-05-24T00:13:58.204Z,3.63
2023-05-24T00:16:26.533Z,3.53
2023-05-24T00:18:54.904Z,3.22
2023-05-24T00:21:23.209Z,3.58
2023-05-24T00:23:52.460Z,3.60
2023-05-24T00:26:21.400Z,3.13
2023-05-24T00:28:57.953Z,3.20
2023-05-24T00:31:26.342Z,3.63
2023-05-24T00:33:54.629Z,3.80
2023-05-24T00:36:22.874Z,3.22
2023-05-24T00:38:52.733Z,3.50
2023-05-24T00:41:21.350Z,3.78
2023-05-24T00:43:49.808Z,3.20
2023-05-24T00:46:22.541Z,3.05
2023-05-24T00:48:51.614Z,3.15
2023-05-24T00:51:19.931Z,2.88
2023-05-24T00:53:49.705Z,3.35
2023-05-24T00:56:18.597Z,3.80
2023-05-24T00:58:46.945Z,3.38
2023-05-24T01:01:15.219Z,3.58
2023-05-24T01:03:46.234Z,3.17
2023-05-24T01:06:16.556Z,3.20
2023-05-24T01:08:56.102Z,3.17
2023-05-24T01:11:32.371Z,3.05
2023-05-24T01:14:14.354Z,3.05
2023-05-24T01:16:57.937Z,2.92
2023-05-24T01:19:50.019Z,3.33
2023-05-24T01:22:39.639Z,3.47
2023-05-24T01:25:14.146Z,3.13
2023-05-24T01:27:45.332Z,3.67
2023-05-24T01:30:14.945Z,3.28
2023-05-24T01:32:43.687Z,3.47
2023-05-24T01:35:12.147Z,3.22
2023-05-24T01:37:40.388Z,2.90
2023-05-24T01:40:10.448Z,3.10
2023-05-24T01:42:49.208Z,3.20
2023-05-24T01:45:23.469Z,3.20
2023-05-24T01:48:02.755Z,3.20
2023-05-24T01:50:35.494Z,3.55
2023-05-24T01:53:07.609Z,3.10
2023-05-24T01:55:38.468Z,2.83
2023-05-24T01:58:08.967Z,2.92
2023-05-24T02:00:37.660Z,2.90
2023-05-24T02:03:06.751Z,2.92
2023-05-24T02:05:35.130Z,2.97
2023-05-24T02:08:07.455Z,2.95
2023-05-24T02:10:38.576Z,3.30
2023-05-24T02:13:08.883Z,2.58
2023-05-24T02:15:37.488Z,2.88
2023-05-24T02:18:08.048Z,3.15
2023-05-24T02:20:37.827Z,2.85
2023-05-24T02:23:06.311Z,2.90
2023-05-24T02:25:34.666Z,3.08
2023-05-24T02:28:03.202Z,3.03
2023-05-24T02:30:32.933Z,3.10
2023-05-24T02:33:01.997Z,3.38
2023-05-24T02:35:30.618Z,2.95
2023-05-24T02:37:58.889Z,3.10
2023-05-24T02:40:27.191Z,3.10
2023-05-24T02:42:55.423Z,3.33
2023-05-24T02:45:23.690Z,2.72
2023-05-24T02:47:53.496Z,3.13
2023-05-24T02:50:21.735Z,2.92
2023-05-24T02:52:50.114Z,3.08
2023-05-24T02:55:18.692Z,3.40
2023-05-24T02:57:47.977Z,2.90
2023-05-24T03:00:18.497Z,3.47
2023-05-24T03:02:51.002Z,2.47
2023-05-24T03:05:21.077Z,2.75
2023-05-24T03:07:49.548Z,2.42
2023-05-24T03:10:17.975Z,2.90
2023-05-24T03:12:47.580Z,2.90
2023-05-24T03:15:16.231Z,2.53
2023-05-24T03:17:44.711Z,2.40
2023-05-24T03:20:13.342Z,3.15
2023-05-24T03:22:43.332Z,3.00
2023-05-24T03:25:11.964Z,3.05
2023-05-24T03:27:40.430Z,2.80
2023-05-24T03:30:10.558Z,3.20
2023-05-24T03:32:47.668Z,2.90
2023-05-24T03:35:16.096Z,2.65
2023-05-24T03:37:45.853Z,3.08
2023-05-24T03:40:14.381Z,3.00
2023-05-24T03:43:00.680Z,2.70
2023-05-24T03:45:41.809Z,2.80
2023-05-24T03:48:10.444Z,2.75
2023-05-24T03:50:38.722Z,2.60
2023-05-24T03:53:08.511Z,3.17
2023-05-24T03:55:36.755Z,2.97
2023-05-24T03:58:05.462Z,3.17
2023-05-24T04:00:33.796Z,2.60
2023-05-24T04:03:03.477Z,3.22
2023-05-24T04:05:31.849Z,2.70
2023-05-24T04:08:00.265Z,3.00
2023-05-24T04:10:29.741Z,2.83
2023-05-24T04:12:58.686Z,2.85
2023-05-24T04:15:27.825Z,2.72
2023-05-24T04:17:56.403Z,3.00
2023-05-24T04:20:25.621Z,2.55
2023-05-24T04:22:56.002Z,2.70
2023-05-24T04:25:24.809Z,2.75
2023-05-24T04:27:54.555Z,2.92
2023-05-24T04:30:23.005Z,2.67
2023-05-24T04:32:51.999Z,2.55
2023-05-24T04:35:20.502Z,2.80
2023-05-24T04:37:50.221Z,2.80
2023-05-24T04:40:20.803Z,2.55
2023-05-24T04:42:49.448Z,2.90
2023-05-24T04:45:19.006Z,2.65
2023-05-24T04:47:47.303Z,2.58
2023-05-24T04:50:15.849Z,2.90
2023-05-24T04:52:44.163Z,3.17
2023-05-24T04:55:12.451Z,3.35
2023-05-24T04:57:40.703Z,3.03
2023-05-24T05:00:12.192Z,2.85
2023-05-24T05:02:41.902Z,3.38
2023-05-24T05:05:10.752Z,2.80
2023-05-24T05:07:40.221Z,2.78
2023-05-24T05:10:09.659Z,2.97
2023-05-24T05:12:38.623Z,2.92
2023-05-24T05:15:07.928Z,2.63
2023-05-24T05:17:36.270Z,2.72
2023-05-24T05:20:07.196Z,2.58
2023-05-24T05:22:35.720Z,2.80
2023-05-24T05:25:04.060Z,2.92
2023-05-24T05:27:32.486Z,3.10
2023-05-24T05:30:00.738Z,2.67
2023-05-24T05:32:29.410Z,2.83
2023-05-24T05:34:57.678Z,3.10
2023-05-24T05:37:27.379Z,2.88
2023-05-24T05:39:55.629Z,2.80
2023-05-24T05:42:24.075Z,2.88
2023-05-24T05:44:52.512Z,2.75
2023-05-24T05:47:20.992Z,2.70
2023-05-24T05:49:49.397Z,2.88
2023-05-24T05:52:17.665Z,2.88
2023-05-24T05:54:47.327Z,3.50
2023-05-24T05:57:16.263Z,2.50
2023-05-24T05:59:44.588Z,3.05
2023-05-24T06:02:12.876Z,3.10
2023-05-24T06:04:41.292Z,3.22
2023-05-24T06:07:09.496Z,3.05
2023-05-24T06:09:37.752Z,3.00
2023-05-24T06:12:07.734Z,2.30
2023-05-24T06:14:38.212Z,2.50
2023-05-24T06:17:06.785Z,2.20
2023-05-24T06:19:35.038Z,2.22
2023-05-24T06:22:03.359Z,2.65
2023-05-24T06:24:34.233Z,2.33
2023-05-24T06:27:05.161Z,3.25
2023-05-24T06:29:35.191Z,2.97
2023-05-24T06:32:03.672Z,2.70
2023-05-24T06:34:32.048Z,2.40
2023-05-24T06:37:00.264Z,2.13
2023-05-24T06:39:28.733Z,2.80
2023-05-24T06:41:57.482Z,2.45
2023-05-24T06:44:31.901Z,2.50
2023-05-24T06:47:02.179Z,2.95
2023-05-24T06:49:30.900Z,2.58
2023-05-24T06:51:59.205Z,2.80
2023-05-24T06:54:27.451Z,2.38
2023-05-24T06:56:55.927Z,2.40
2023-05-24T06:59:24.292Z,2.92
2023-05-24T07:01:58.226Z,2.03
2023-05-24T07:04:29.528Z,2.47
2023-05-24T07:06:58.432Z,2.95
2023-05-24T07:09:27.140Z,2.70
2023-05-24T07:11:55.538Z,2.42
2023-05-24T07:14:25.856Z,2.42
2023-05-24T07:16:57.174Z,2.67
2023-05-24T07:19:28.923Z,2.72
2023-05-24T07:21:58.614Z,2.35
2023-05-24T07:24:26.914Z,2.70
2023-05-24T07:26:56.553Z,2.97
2023-05-24T07:29:25.826Z,2.40
2023-05-24T07:31:57.926Z,2.28
2023-05-24T07:34:29.968Z,3.03
2023-05-24T07:37:00.541Z,2.60
2023-05-24T07:39:29.459Z,2.80
2023-05-24T07:41:57.804Z,3.03
2023-05-24T07:44:26.145Z,3.05
2023-05-24T07:46:55.560Z,3.05
2023-05-24T07:49:24.074Z,2.83
2023-05-24T07:51:52.863Z,3.30
2023-05-24T07:54:22.485Z,2.83
2023-05-24T07:56:50.757Z,2.65
2023-05-24T07:59:19.107Z,2.63
2023-05-24T08:01:47.669Z,2.47
2023-05-24T08:04:16.196Z,3.53
2023-05-24T08:06:46.494Z,2.75
2023-05-24T08:09:14.797Z,2.45
2023-05-24T08:14:39.559Z,2.90
2023-05-24T08:17:07.933Z,2.53
2023-05-24T08:19:36.699Z,3.05
2023-05-24T08:22:05.825Z,2.90
2023-05-24T08:24:34.336Z,2.67
2023-05-24T08:27:04.329Z,2.72
2023-05-24T08:29:33.205Z,3.47
2023-05-24T08:32:03.970Z,2.60
2023-05-24T08:34:33.712Z,3.15
2023-05-24T08:37:02.172Z,2.80
2023-05-24T08:39:30.986Z,3.08
2023-05-24T08:42:09.201Z,3.00
2023-05-24T08:44:46.996Z,2.97
2023-05-24T08:47:17.303Z,3.08
2023-05-24T08:49:46.625Z,2.80
2023-05-24T08:52:15.708Z,3.17
2023-05-24T08:54:44.763Z,3.00
2023-05-24T08:57:13.548Z,2.92
2023-05-24T08:59:43.476Z,3.15
2023-05-24T09:02:15.037Z,2.92
2023-05-24T09:04:47.418Z,2.85
2023-05-24T09:07:18.444Z,2.88
2023-05-24T09:09:51.046Z,3.00
2023-05-24T09:12:35.689Z,2.80
2023-05-24T09:15:07.198Z,2.78
2023-05-24T09:17:37.950Z,2.80
2023-05-24T09:20:11.071Z,3.28
2023-05-24T09:22:42.231Z,2.78
2023-05-24T09:25:14.657Z,2.85
2023-05-24T09:27:45.526Z,2.97
2023-05-24T09:30:16.645Z,2.80
2023-05-24T09:32:57.139Z,3.15
2023-05-24T09:35:28.085Z,2.83
2023-05-24T09:37:59.584Z,2.88
2023-05-24T09:40:29.365Z,2.92
2023-05-24T09:43:07.204Z,3.13
2023-05-24T09:45:40.252Z,3.03
2023-05-24T09:48:13.004Z,2.72
2023-05-24T09:50:43.019Z,3.30
2023-05-24T09:53:12.883Z,2.83
2023-05-24T09:55:41.451Z,3.00
2023-05-24T09:58:12.641Z,2.97
2023-05-24T10:00:42.699Z,2.90
2023-05-24T10:03:13.292Z,2.42
2023-05-24T10:05:46.572Z,3.08
2023-05-24T10:08:15.412Z,2.80
2023-05-24T10:10:44.949Z,2.47
2023-05-24T10:13:15.904Z,2.75
2023-05-24T10:15:45.446Z,2.80
2023-05-24T10:18:14.390Z,3.20
2023-05-24T10:20:45.452Z,2.97
2023-05-24T10:23:20.505Z,2.80
2023-05-24T10:25:53.705Z,3.15
2023-05-24T10:28:25.191Z,2.67
2023-05-24T10:31:07.301Z,2.33
2023-05-24T10:33:38.327Z,2.90
2023-05-24T10:36:15.982Z,2.58
2023-05-24T10:38:47.034Z,3.00
2023-05-24T10:41:15.512Z,2.55
2023-05-24T10:44:00.939Z,3.05
2023-05-24T10:46:36.251Z,2.72
2023-05-24T10:49:06.497Z,2.80
2023-05-24T10:51:38.625Z,2.80
2023-05-24T10:54:13.728Z,2.97
2023-05-24T10:56:43.947Z,2.72
2023-05-24T10:59:25.122Z,2.95
2023-05-24T11:01:58.148Z,3.17
2023-05-24T11:04:27.312Z,3.03
2023-05-24T11:07:00.374Z,2.90
2023-05-24T11:09:29.741Z,2.88
2023-05-24T11:12:07.384Z,3.00
2023-05-24T11:14:39.379Z,2.30
2023-05-24T11:17:08.667Z,2.50
2023-05-24T11:19:38.480Z,2.58
2023-05-24T11:22:10.163Z,2.50
2023-05-24T11:24:38.628Z,2.88
2023-05-24T11:27:07.278Z,2.80
2023-05-24T11:29:42.483Z,3.08
2023-05-24T11:32:11.098Z,2.58
2023-05-24T11:34:39.961Z,2.42
2023-05-24T11:37:09.729Z,2.75
2023-05-24T11:39:39.126Z,2.42
2023-05-24T11:42:08.714Z,2.13
2023-05-24T11:44:39.113Z,2.75
2023-05-24T11:47:09.377Z,2.60
2023-05-24T11:49:37.699Z,2.80
2023-05-24T11:52:06.374Z,2.75
2023-05-24T11:54:37.301Z,2.83
2023-05-24T11:57:06.743Z,2.80
2023-05-24T11:59:37.764Z,2.72
2023-05-24T12:02:07.877Z,2.78
2023-05-24T12:04:36.540Z,2.78
2023-05-24T12:07:05.532Z,2.67
2023-05-24T12:09:35.359Z,3.10
2023-05-24T12:12:07.140Z,2.67
2023-05-24T12:14:37.109Z,2.97
2023-05-24T12:17:05.660Z,2.50
2023-05-24T12:19:36.419Z,2.55
2023-05-24T12:22:07.226Z,2.60
2023-05-24T12:24:38.988Z,2.40
2023-05-24T12:27:08.671Z,2.60
2023-05-24T12:29:40.697Z,2.30
2023-05-24T12:32:13.525Z,2.33
2023-05-24T12:34:43.537Z,2.88
2023-05-24T12:37:13.987Z,2.65
2023-05-24T12:39:45.158Z,2.60
2023-05-24T12:42:14.256Z,2.50
2023-05-24T12:44:44.896Z,2.50
2023-05-24T12:47:13.579Z,3.20
2023-05-24T12:49:42.024Z,2.38
2023-05-24T12:52:12.400Z,2.90
2023-05-24T12:54:40.970Z,2.55
2023-05-24T12:57:11.104Z,2.70
2023-05-24T12:59:39.446Z,2.42
2023-05-24T13:02:08.166Z,2.38
2023-05-24T13:04:36.466Z,3.25
2023-05-24T13:07:04.998Z,2.85
2023-05-24T13:09:34.205Z,2.63
2023-05-24T13:12:03.086Z,2.50
2023-05-24T13:14:32.907Z,2.70
2023-05-24T13:17:01.714Z,2.90
2023-05-24T13:19:30.034Z,2.45
2023-05-24T13:21:58.681Z,2.40
2023-05-24T13:24:27.655Z,2.42
2023-05-24T13:26:56.077Z,2.22
2023-05-24T13:31:57.409Z,2.45
2023-05-24T13:34:26.221Z,2.50
2023-05-24T13:36:55.013Z,2.50
2023-05-24T13:39:24.784Z,2.60
2023-05-24T13:41:53.382Z,2.38
2023-05-24T13:44:21.818Z,2.20
2023-05-24T13:46:50.513Z,2.25
2023-05-24T13:49:20.328Z,2.10
2023-05-24T13:51:49.320Z,1.85
2023-05-24T13:54:17.744Z,2.17
2023-05-24T13:56:46.300Z,2.15
2023-05-24T13:59:14.550Z,2.17
2023-05-24T14:01:43.327Z,2.28
2023-05-24T14:04:11.606Z,2.47
2023-05-24T14:06:42.064Z,1.90
2023-05-24T14:09:10.786Z,2.17
2023-05-24T14:11:39.226Z,1.92
2023-05-24T14:14:57.780Z,2.40
2023-05-24T14:16:56.361Z,1.85
2023-05-24T14:19:24.701Z,2.65
2023-05-24T14:21:54.513Z,2.38
2023-05-24T14:24:23.821Z,2.00
2023-05-24T14:26:52.346Z,1.92
2023-05-24T14:29:21.315Z,2.00
2023-05-24T14:31:50.429Z,2.30
2023-05-24T14:34:18.702Z,1.80
2023-05-24T14:36:48.458Z,2.20
2023-05-24T14:39:18.166Z,1.75
2023-05-24T14:41:46.612Z,2.22
2023-05-24T14:44:15.036Z,2.15
2023-05-24T14:46:43.457Z,1.65
2023-05-24T14:49:11.786Z,2.17
2023-05-24T14:51:40.268Z,1.98
2023-05-24T14:54:08.665Z,2.28
2023-05-24T14:56:38.428Z,2.10
2023-05-24T14:59:06.864Z,1.80
2023-05-24T15:01:35.468Z,2.78
2023-05-24T15:04:03.836Z,2.05
2023-05-24T15:06:35.144Z,2.50
2023-05-24T15:09:03.968Z,1.77
2023-05-24T15:11:32.307Z,1.92
2023-05-24T15:14:02.040Z,2.28
2023-05-24T15:16:30.473Z,2.22
2023-05-24T15:18:58.810Z,1.95
2023-05-24T15:21:27.157Z,2.17
2023-05-24T15:23:55.602Z,1.90
2023-05-24T15:26:23.911Z,1.92
2023-05-24T15:28:52.233Z,2.00
2023-05-24T15:31:22.172Z,2.63
2023-05-24T15:33:50.580Z,2.30
2023-05-24T15:36:19.386Z,3.22
2023-05-24T15:38:47.727Z,2.80
2023-05-24T15:41:16.162Z,2.65
2023-05-24T15:43:44.589Z,2.25
2023-05-24T15:46:13.083Z,2.47
2023-05-24T15:48:42.706Z,2.47
2023-05-24T15:53:42.373Z,2.10
2023-05-24T15:56:10.821Z,2.13
2023-05-24T15:58:39.297Z,2.40
2023-05-24T16:01:07.763Z,1.75
2023-05-24T16:03:37.957Z,2.35
2023-05-24T16:06:08.247Z,2.08
2023-05-24T16:08:36.881Z,2.67
2023-05-24T16:11:08.234Z,2.38
2023-05-24T16:13:36.713Z,2.50
2023-05-24T16:16:05.323Z,2.28
2023-05-24T16:18:35.266Z,2.30
2023-05-24T16:21:03.982Z,2.20
2023-05-24T16:23:33.630Z,2.50
2023-05-24T16:26:01.977Z,2.30
2023-05-24T16:28:30.448Z,2.50
2023-05-24T16:31:02.731Z,2.78
2023-05-24T16:33:31.036Z,2.22
2023-05-24T16:36:03.266Z,2.40
2023-05-24T16:38:34.196Z,2.17
2023-05-24T16:41:02.692Z,2.75
2023-05-24T16:43:31.029Z,2.22
2023-05-24T16:46:00.054Z,2.30
2023-05-24T16:48:31.214Z,2.00
2023-05-24T16:50:59.917Z,2.28
2023-05-24T16:53:28.767Z,1.98
2023-05-24T16:55:58.735Z,2.00
2023-05-24T16:58:29.038Z,2.25
2023-05-24T17:00:58.446Z,2.13
2023-05-24T17:03:29.361Z,2.50
2023-05-24T17:06:03.395Z,2.15
2023-05-24T17:08:34.236Z,2.90
2023-05-24T17:11:04.766Z,2.60
2023-05-24T17:13:33.376Z,2.25
2023-05-24T17:16:01.813Z,2.17
2023-05-24T17:18:30.503Z,2.70
2023-05-24T17:21:00.674Z,3.03
2023-05-24T17:23:31.020Z,2.60
2023-05-24T17:26:00.981Z,2.25
2023-05-24T17:28:31.112Z,2.95
2023-05-24T17:31:01.330Z,2.58
2023-05-24T17:33:31.177Z,2.30
2023-05-24T17:36:03.140Z,2.85
2023-05-24T17:38:32.956Z,2.20
2023-05-24T17:41:01.491Z,2.45
2023-05-24T17:43:32.954Z,2.38
2023-05-24T17:46:06.305Z,2.67
2023-05-24T17:48:36.572Z,2.20
2023-05-24T17:51:06.602Z,2.47
2023-05-24T17:53:35.716Z,2.45
2023-05-24T17:56:05.528Z,2.60
2023-05-24T17:58:37.237Z,2.65
2023-05-24T18:01:06.802Z,2.17
2023-05-24T18:03:36.720Z,2.47
2023-05-24T18:06:10.431Z,2.92
2023-05-24T18:08:43.828Z,2.42
2023-05-24T18:11:13.140Z,2.67
2023-05-24T18:13:44.103Z,2.65
2023-05-24T18:16:14.177Z,2.83
2023-05-24T18:18:43.824Z,3.00
2023-05-24T18:21:12.981Z,3.10
2023-05-24T18:23:41.403Z,3.50
2023-05-24T18:26:11.086Z,3.25
2023-05-24T18:28:41.754Z,3.55
2023-05-24T18:31:11.814Z,2.83
2023-05-24T18:33:40.306Z,2.60
2023-05-24T18:36:09.558Z,2.47
2023-05-24T18:38:39.829Z,2.75
2023-05-24T18:41:09.918Z,2.70
2023-05-24T18:43:39.032Z,2.75
2023-05-24T18:46:08.830Z,3.10
2023-05-24T18:48:38.485Z,3.38
2023-05-24T18:51:07.682Z,3.30
2023-05-24T18:53:36.802Z,2.92
2023-05-24T18:56:05.501Z,3.25
2023-05-24T18:58:33.913Z,3.05
2023-05-24T19:01:02.526Z,3.03
2023-05-24T19:03:30.980Z,2.90
2023-05-24T19:06:01.291Z,2.85
2023-05-24T19:08:32.224Z,2.85
2023-05-24T19:11:01.646Z,2.78
2023-05-24T19:13:29.965Z,2.70
2023-05-24T19:16:00.536Z,2.83
2023-05-24T19:18:29.000Z,2.40
2023-05-24T19:20:57.487Z,2.78
2023-05-24T19:23:27.224Z,2.55
2023-05-24T19:25:55.618Z,2.70
2023-05-24T19:28:24.207Z,2.92
2023-05-24T19:30:52.936Z,3.17
2023-05-24T19:33:21.265Z,3.13
2023-05-24T19:35:51.101Z,3.08
2023-05-24T19:38:19.666Z,2.67
2023-05-24T19:40:49.682Z,2.88
2023-05-24T19:43:18.053Z,3.10
2023-05-24T19:45:47.938Z,2.90
2023-05-24T19:48:16.286Z,2.72
2023-05-24T19:50:45.516Z,2.88
2023-05-24T19:53:16.485Z,2.83
2023-05-24T19:55:45.137Z,2.50
2023-05-24T19:58:15.181Z,2.85
2023-05-24T20:00:43.609Z,2.90
2023-05-24T20:03:12.648Z,3.10
2023-05-24T20:05:41.556Z,2.80
2023-05-24T20:08:10.001Z,3.08
2023-05-24T20:10:38.914Z,3.10
2023-05-24T20:13:07.541Z,2.47
2023-05-24T20:15:37.271Z,3.17
2023-05-24T20:18:06.082Z,3.10
2023-05-24T20:20:34.422Z,3.25
2023-05-24T20:23:02.652Z,2.72
2023-05-24T20:25:30.993Z,2.85
2023-05-24T20:27:59.621Z,2.95
2023-05-24T20:30:28.668Z,2.85
2023-05-24T20:32:58.306Z,2.80
2023-05-24T20:35:26.730Z,3.05
2023-05-24T20:37:55.041Z,3.17
2023-05-24T20:40:24.943Z,2.83
2023-05-24T20:42:53.641Z,2.50
2023-05-24T20:45:22.005Z,2.72
2023-05-24T20:47:50.315Z,2.88
2023-05-24T20:50:19.905Z,2.97
2023-05-24T20:52:48.298Z,2.40
2023-05-24T20:55:17.559Z,3.10
2023-05-24T20:57:46.050Z,2.83
2023-05-24T21:00:14.616Z,2.90
2023-05-24T21:02:43.064Z,2.95
2023-05-24T21:05:11.440Z,3.95
2023-05-24T21:07:41.239Z,2.78
2023-05-24T21:10:10.485Z,3.10
2023-05-24T21:12:39.754Z,3.28
2023-05-24T21:15:08.941Z,3.17
2023-05-24T21:17:37.996Z,2.78
2023-05-24T21:20:07.386Z,2.70
2023-05-24T21:22:35.954Z,2.53
2023-05-24T21:25:05.964Z,2.95
2023-05-24T21:27:34.269Z,2.53
2023-05-24T21:30:03.256Z,2.67
2023-05-24T21:32:32.695Z,2.88
2023-05-24T21:35:00.965Z,3.10
2023-05-24T21:37:29.430Z,2.65
2023-05-24T21:39:57.639Z,2.75
2023-05-24T21:42:27.366Z,2.70
2023-05-24T21:44:55.597Z,2.70
2023-05-24T21:47:23.953Z,2.90
2023-05-24T21:49:54.758Z,2.40
2023-05-24T21:52:23.881Z,2.55
2023-05-24T21:54:52.136Z,2.75
2023-05-24T21:57:20.572Z,2.83
2023-05-24T21:59:50.117Z,2.60
2023-05-24T22:02:18.845Z,2.60
2023-05-24T22:04:47.204Z,3.20
2023-05-24T22:07:15.627Z,2.30
2023-05-24T22:09:44.196Z,2.70
2023-05-24T22:12:12.480Z,2.50
2023-05-24T22:14:40.806Z,2.80
2023-05-24T22:17:11.181Z,2.72
2023-05-24T22:19:41.188Z,2.72
2023-05-24T22:22:09.785Z,2.55
2023-05-24T22:24:38.176Z,2.65
2023-05-24T22:27:09.443Z,2.72
2023-05-24T22:29:37.782Z,2.80
2023-05-24T22:32:06.584Z,2.95
2023-05-24T22:34:36.355Z,2.75
2023-05-24T22:37:04.868Z,3.10
2023-05-24T22:39:33.338Z,3.10
2023-05-24T22:42:01.687Z,3.30
2023-05-24T22:44:30.060Z,3.10
2023-05-24T22:46:58.306Z,2.72
2023-05-24T22:49:29.440Z,3.30
2023-05-24T22:51:59.213Z,2.90
2023-05-24T22:54:27.506Z,3.30
2023-05-24T22:56:56.605Z,3.10
2023-05-24T22:59:24.873Z,2.90
2023-05-24T23:01:53.476Z,2.53
2023-05-24T23:04:23.126Z,3.00
2023-05-24T23:06:53.397Z,2.55
2023-05-24T23:09:28.873Z,3.00
2023-05-24T23:11:58.480Z,3.38
2023-05-24T23:14:30.121Z,3.10
2023-05-24T23:17:02.291Z,3.40
2023-05-24T23:19:31.094Z,3.22
2023-05-24T23:21:59.392Z,3.35
2023-05-24T23:24:29.003Z,3.13
2023-05-24T23:26:57.377Z,3.30
2023-05-24T23:29:25.691Z,3.22
2023-05-24T23:31:53.997Z,3.10
2023-05-24T23:34:22.219Z,4.05
2023-05-24T23:36:50.503Z,3.40
2023-05-24T23:39:19.011Z,3.88
2023-05-24T23:41:48.804Z,3.95
2023-05-24T23:44:17.104Z,3.50
2023-05-24T23:46:45.580Z,3.70
2023-05-24T23:49:13.898Z,3.85
2023-05-24T23:51:42.236Z,3.20
2023-05-24T23:54:11.178Z,4.00
2023-05-24T23:56:39.999Z,3.65
2023-05-24T23:59:09.560Z,3.22
